createdAt,value
2023-04-18T00:01:31.937Z,19.63
2023-04-18T00:03:58.685Z,15.18
2023-04-18T00:06:25.936Z,22.55
2023-04-18T00:08:52.510Z,19.70
2023-04-18T00:11:19.056Z,19.60
2023-04-18T00:13:47.367Z,21.15
2023-04-18T00:16:14.191Z,24.42
2023-04-18T00:18:40.767Z,22.55
2023-04-18T00:21:08.596Z,25.30
2023-04-18T00:23:36.054Z,21.13
2023-04-18T00:26:03.146Z,23.85
2023-04-18T00:28:29.764Z,21.60
2023-04-18T00:30:56.593Z,23.25
2023-04-18T00:33:23.310Z,21.23
2023-04-18T00:35:49.862Z,25.00
2023-04-18T00:38:16.487Z,27.02
2023-04-18T00:40:43.060Z,24.98
2023-04-18T00:43:09.632Z,22.67
2023-04-18T00:45:37.048Z,22.75
2023-04-18T00:48:03.680Z,28.10
2023-04-18T00:50:30.997Z,27.10
2023-04-18T00:52:58.298Z,25.52
2023-04-18T00:55:25.024Z,26.10
2023-04-18T00:57:52.214Z,23.92
2023-04-18T01:00:18.969Z,25.55
2023-04-18T01:02:47.128Z,23.85
2023-04-18T01:05:13.891Z,22.67
2023-04-18T01:07:43.488Z,27.92
2023-04-18T01:10:11.021Z,29.73
2023-04-18T01:12:37.764Z,29.88
2023-04-18T01:15:07.559Z,30.55
2023-04-18T01:17:38.466Z,31.17
2023-04-18T01:20:06.483Z,28.70
2023-04-18T01:22:33.451Z,30.88
2023-04-18T01:25:00.033Z,27.63
2023-04-18T01:27:26.569Z,29.15
2023-04-18T01:29:53.127Z,27.48
2023-04-18T01:32:20.543Z,31.05
2023-04-18T01:34:47.373Z,32.00
2023-04-18T01:37:13.964Z,30.27
2023-04-18T01:39:40.512Z,31.10
2023-04-18T01:42:07.080Z,32.03
2023-04-18T01:44:33.757Z,29.25
2023-04-18T01:47:00.308Z,30.73
2023-04-18T01:49:26.947Z,31.90
2023-04-18T01:51:53.484Z,31.58
2023-04-18T01:54:20.074Z,29.30
2023-04-18T01:56:46.652Z,29.55
2023-04-18T01:59:13.201Z,32.63
2023-04-18T02:01:39.771Z,31.75
2023-04-18T02:04:06.354Z,31.58
2023-04-18T02:06:32.887Z,37.05
2023-04-18T02:08:59.456Z,33.45
2023-04-18T02:11:26.250Z,27.10
2023-04-18T02:13:52.776Z,34.90
2023-04-18T02:16:19.345Z,25.35
2023-04-18T02:18:47.067Z,32.67
2023-04-18T02:21:13.589Z,32.20
2023-04-18T02:23:40.189Z,32.42
2023-04-18T02:26:06.742Z,34.10
2023-04-18T02:28:33.325Z,34.20
2023-04-18T02:31:00.094Z,31.00
2023-04-18T02:33:26.630Z,33.88
2023-04-18T02:35:53.193Z,35.33
2023-04-18T02:38:19.805Z,36.53
2023-04-18T02:40:46.434Z,32.38
2023-04-18T02:43:13.013Z,36.83
2023-04-18T02:45:39.626Z,39.10
2023-04-18T02:48:06.283Z,33.17
2023-04-18T02:50:32.868Z,33.47
2023-04-18T02:52:59.379Z,31.23
2023-04-18T02:55:26.925Z,35.00
2023-04-18T02:57:53.560Z,33.35
2023-04-18T03:00:20.224Z,35.25
2023-04-18T03:02:46.865Z,36.40
2023-04-18T03:05:13.538Z,32.50
2023-04-18T03:07:40.124Z,31.58
2023-04-18T03:10:07.091Z,28.88
2023-04-18T03:12:33.768Z,32.15
2023-04-18T03:15:00.371Z,30.30
2023-04-18T03:17:27.106Z,29.73
2023-04-18T03:19:53.744Z,25.10
2023-04-18T03:22:20.422Z,23.70
2023-04-18T03:24:46.975Z,27.05
2023-04-18T03:27:13.914Z,30.42
2023-04-18T03:29:40.445Z,24.08
2023-04-18T03:32:06.967Z,28.42
2023-04-18T03:34:33.573Z,27.63
2023-04-18T03:37:00.160Z,30.85
2023-04-18T03:39:26.723Z,23.48
2023-04-18T03:41:53.434Z,26.40
2023-04-18T03:44:19.985Z,32.67
2023-04-18T03:46:46.620Z,26.92
2023-04-18T03:49:13.263Z,30.88
2023-04-18T03:51:47.246Z,32.10
2023-04-18T03:54:15.347Z,34.42
2023-04-18T03:56:42.508Z,26.92
2023-04-18T03:59:09.067Z,33.58
2023-04-18T04:01:35.723Z,31.38
2023-04-18T04:04:03.089Z,36.83
2023-04-18T04:06:30.101Z,26.75
2023-04-18T04:08:56.638Z,32.70
2023-04-18T04:11:23.402Z,31.77
2023-04-18T04:13:49.939Z,23.05
2023-04-18T04:16:16.574Z,29.33
2023-04-18T04:18:43.126Z,30.10
2023-04-18T04:21:09.749Z,27.52
2023-04-18T04:23:36.332Z,35.50
2023-04-18T04:26:05.691Z,33.28
2023-04-18T04:30:59.293Z,35.47
2023-04-18T04:33:28.505Z,34.45
2023-04-18T04:35:55.503Z,36.17
2023-04-18T04:38:25.127Z,33.88
2023-04-18T04:40:52.926Z,32.45
2023-04-18T04:43:20.484Z,39.65
2023-04-18T04:45:52.603Z,30.42
2023-04-18T04:48:20.311Z,31.38
2023-04-18T04:50:56.333Z,34.55
2023-04-18T04:53:24.116Z,33.47
2023-04-18T04:55:51.762Z,35.83
2023-04-18T04:58:19.080Z,36.60
2023-04-18T05:00:46.026Z,35.40
2023-04-18T05:03:12.661Z,37.75
2023-04-18T05:05:39.706Z,34.20
2023-04-18T05:08:06.498Z,32.95
2023-04-18T05:10:33.172Z,34.38
2023-04-18T05:12:59.664Z,36.33
2023-04-18T05:15:26.190Z,40.97
2023-04-18T05:17:52.929Z,35.63
2023-04-18T05:20:19.522Z,37.58
2023-04-18T05:22:46.020Z,38.00
2023-04-18T05:25:12.746Z,35.15
2023-04-18T05:27:39.533Z,23.20
2023-04-18T05:30:06.907Z,23.33
2023-04-18T05:32:33.519Z,29.25
2023-04-18T05:35:00.110Z,28.08
2023-04-18T05:37:26.694Z,26.33
2023-04-18T05:39:53.227Z,30.23
2023-04-18T05:42:19.769Z,34.72
2023-04-18T05:44:46.286Z,36.10
2023-04-18T05:47:12.808Z,36.30
2023-04-18T05:49:39.333Z,37.35
2023-04-18T05:52:05.884Z,30.23
2023-04-18T05:54:32.443Z,27.25
2023-04-18T05:56:59.677Z,28.00
2023-04-18T05:59:26.960Z,28.90
2023-04-18T06:01:53.574Z,27.20
2023-04-18T06:04:20.844Z,21.85
2023-04-18T06:06:47.750Z,27.17
2023-04-18T06:09:14.292Z,27.60
2023-04-18T06:11:40.849Z,21.08
2023-04-18T06:14:07.898Z,24.70
2023-04-18T06:16:36.691Z,24.17
2023-04-18T06:19:05.096Z,22.70
2023-04-18T06:21:32.121Z,26.52
2023-04-18T06:23:58.719Z,21.05
2023-04-18T06:26:25.254Z,25.27
2023-04-18T06:28:51.812Z,28.52
2023-04-18T06:31:18.570Z,24.92
2023-04-18T06:33:45.179Z,25.00
2023-04-18T06:36:11.739Z,30.48
2023-04-18T06:38:38.299Z,24.92
2023-04-18T06:41:04.962Z,11.02
2023-04-18T06:43:31.613Z,26.70
2023-04-18T06:45:59.123Z,33.88
2023-04-18T06:48:25.691Z,27.70
2023-04-18T06:50:52.210Z,30.02
2023-04-18T06:53:18.739Z,28.02
2023-04-18T06:55:45.363Z,29.80
2023-04-18T06:58:13.807Z,32.40
2023-04-18T07:00:40.569Z,38.42
2023-04-18T07:03:11.304Z,30.38
2023-04-18T07:05:41.716Z,32.53
2023-04-18T07:08:08.354Z,13.50
2023-04-18T07:10:34.983Z,26.40
2023-04-18T07:13:01.683Z,31.45
2023-04-18T07:15:28.534Z,30.35
2023-04-18T07:17:55.285Z,33.10
2023-04-18T07:20:21.861Z,34.10
2023-04-18T07:22:48.690Z,29.05
2023-04-18T07:25:15.281Z,29.33
2023-04-18T07:27:41.874Z,26.88
2023-04-18T07:30:09.152Z,26.38
2023-04-18T07:32:35.771Z,31.67
2023-04-18T07:35:03.372Z,27.02
2023-04-18T07:37:30.022Z,28.27
2023-04-18T07:39:56.561Z,27.73
2023-04-18T07:42:23.117Z,25.65
2023-04-18T07:44:49.731Z,30.15
2023-04-18T07:47:16.477Z,30.05
2023-04-18T07:49:43.002Z,22.38
2023-04-18T07:52:09.562Z,22.92
2023-04-18T07:54:36.142Z,22.17
2023-04-18T07:57:02.639Z,32.33
2023-04-18T07:59:29.759Z,22.50
2023-04-18T08:01:56.399Z,29.58
2023-04-18T08:04:23.255Z,19.80
2023-04-18T08:06:49.908Z,20.83
2023-04-18T08:09:18.435Z,28.98
2023-04-18T08:11:45.132Z,27.17
2023-04-18T08:14:11.990Z,21.13
2023-04-18T08:16:39.227Z,23.17
2023-04-18T08:19:06.211Z,18.35
2023-04-18T08:21:32.923Z,26.88
2023-04-18T08:23:59.537Z,24.15
2023-04-18T08:26:26.868Z,27.25
2023-04-18T08:28:53.790Z,26.42
2023-04-18T08:31:20.697Z,26.08
2023-04-18T08:33:47.279Z,26.98
2023-04-18T08:36:14.040Z,25.65
2023-04-18T08:38:40.560Z,20.88
2023-04-18T08:41:08.253Z,27.27
2023-04-18T08:43:34.803Z,15.55
2023-04-18T08:46:01.700Z,21.27
2023-04-18T08:48:28.378Z,23.33
2023-04-18T08:50:59.354Z,23.77
2023-04-18T08:53:26.890Z,24.67
2023-04-18T08:55:57.989Z,23.15
2023-04-18T08:58:27.592Z,20.52
2023-04-18T09:00:54.925Z,20.80
2023-04-18T09:03:42.299Z,24.00
2023-04-18T09:06:18.960Z,22.23
2023-04-18T09:08:59.199Z,14.98
2023-04-18T09:11:30.265Z,21.17
2023-04-18T09:13:59.055Z,25.77
2023-04-18T09:16:27.436Z,21.38
2023-04-18T09:19:16.262Z,22.05
2023-04-18T09:21:48.722Z,19.98
2023-04-18T09:24:21.129Z,24.90
2023-04-18T09:26:49.801Z,28.75
2023-04-18T09:29:22.273Z,29.45
2023-04-18T09:32:01.065Z,27.85
2023-04-18T09:34:28.987Z,26.55
2023-04-18T09:37:13.577Z,27.98
2023-04-18T09:39:42.428Z,23.52
2023-04-18T09:42:10.516Z,23.33
2023-04-18T09:44:38.442Z,23.15
2023-04-18T09:47:07.858Z,25.15
2023-04-18T09:52:06.309Z,29.77
2023-04-18T09:54:35.396Z,20.92
2023-04-18T09:57:05.998Z,29.33
2023-04-18T09:59:48.101Z,27.27
2023-04-18T10:02:19.750Z,21.73
2023-04-18T10:04:47.350Z,32.67
2023-04-18T10:07:16.774Z,34.95
2023-04-18T10:09:46.773Z,32.53
2023-04-18T10:12:14.065Z,27.50
2023-04-18T10:14:43.195Z,31.08
2023-04-18T10:17:11.061Z,24.58
2023-04-18T10:19:41.266Z,34.35
2023-04-18T10:22:08.108Z,27.35
2023-04-18T10:24:53.600Z,30.23
2023-04-18T10:27:49.344Z,20.33
2023-04-18T10:30:16.699Z,25.70
2023-04-18T10:32:45.495Z,24.77
2023-04-18T10:35:12.226Z,26.10
2023-04-18T10:37:59.784Z,23.90
2023-04-18T10:40:35.438Z,27.02
2023-04-18T10:43:02.193Z,22.30
2023-04-18T10:45:31.372Z,33.10
2023-04-18T10:48:31.298Z,25.33
2023-04-18T10:51:17.761Z,28.63
2023-04-18T10:53:49.951Z,22.67
2023-04-18T10:56:16.833Z,22.42
2023-04-18T10:58:50.014Z,30.05
2023-04-18T11:01:31.660Z,24.73
2023-04-18T11:03:59.171Z,33.72
2023-04-18T11:06:27.216Z,37.33
2023-04-18T11:09:13.776Z,34.88
2023-04-18T11:11:41.862Z,28.65
2023-04-18T11:14:08.453Z,33.55
2023-04-18T11:16:35.654Z,35.95
2023-04-18T11:19:21.215Z,36.13
2023-04-18T11:21:47.750Z,33.55
2023-04-18T11:24:22.027Z,39.72
2023-04-18T11:26:48.588Z,36.35
2023-04-18T11:29:17.994Z,31.50
2023-04-18T11:34:16.767Z,33.13
2023-04-18T11:36:43.470Z,37.38
2023-04-18T11:39:10.544Z,32.80
2023-04-18T11:41:37.121Z,32.20
2023-04-18T11:44:06.329Z,30.35
2023-04-18T11:46:39.855Z,32.20
2023-04-18T11:49:06.376Z,33.42
2023-04-18T11:51:44.709Z,31.00
2023-04-18T11:54:42.995Z,34.70
2023-04-18T11:57:22.386Z,28.92
2023-04-18T11:59:57.852Z,31.58
2023-04-18T12:05:00.210Z,34.63
2023-04-18T12:07:40.014Z,29.08
2023-04-18T12:10:28.240Z,32.72
2023-04-18T12:12:57.557Z,33.90
2023-04-18T12:18:02.543Z,30.83
2023-04-18T12:20:51.859Z,31.35
2023-04-18T12:23:39.018Z,27.63
2023-04-18T12:26:21.078Z,27.45
2023-04-18T12:28:50.386Z,27.67
2023-04-18T12:33:43.686Z,31.90
2023-04-18T12:36:12.786Z,35.72
2023-04-18T12:38:39.539Z,34.20
2023-04-18T12:41:06.302Z,32.58
2023-04-18T12:43:32.855Z,34.83
2023-04-18T12:45:59.974Z,32.85
2023-04-18T12:48:26.554Z,30.25
2023-04-18T12:50:53.107Z,24.25
2023-04-18T12:53:19.683Z,31.73
2023-04-18T12:55:46.266Z,33.85
2023-04-18T12:58:18.399Z,34.90
2023-04-18T13:00:44.940Z,36.38
2023-04-18T13:03:13.469Z,27.00
2023-04-18T13:05:40.453Z,28.85
2023-04-18T13:08:16.141Z,28.73
2023-04-18T13:10:45.101Z,28.55
2023-04-18T13:13:11.912Z,29.10
2023-04-18T13:15:38.778Z,27.98
2023-04-18T13:18:06.742Z,27.70
2023-04-18T13:20:34.440Z,28.40
2023-04-18T13:23:02.810Z,29.13
2023-04-18T13:25:29.603Z,28.33
2023-04-18T13:27:58.241Z,26.05
2023-04-18T13:30:24.797Z,26.83
2023-04-18T13:32:51.761Z,25.85
2023-04-18T13:35:18.527Z,27.58
2023-04-18T13:37:46.117Z,30.45
2023-04-18T13:40:14.456Z,28.55
2023-04-18T13:42:41.088Z,27.00
2023-04-18T13:45:08.011Z,27.63
2023-04-18T13:47:34.995Z,26.55
2023-04-18T13:50:01.717Z,22.85
2023-04-18T13:52:28.434Z,20.67
2023-04-18T13:54:55.019Z,17.92
2023-04-18T13:57:22.026Z,25.35
2023-04-18T13:59:48.632Z,20.73
2023-04-18T14:02:15.300Z,19.60
2023-04-18T14:04:42.004Z,25.52
2023-04-18T14:07:09.131Z,23.55
2023-04-18T14:09:35.781Z,20.50
2023-04-18T14:12:02.319Z,23.80
2023-04-18T14:14:29.172Z,23.52
2023-04-18T14:16:55.806Z,26.60
2023-04-18T14:19:22.423Z,22.25
2023-04-18T14:21:48.953Z,24.58
2023-04-18T14:24:15.707Z,19.60
2023-04-18T14:26:42.456Z,25.35
2023-04-18T14:29:09.013Z,20.50
2023-04-18T14:31:35.776Z,23.10
2023-04-18T14:34:02.702Z,22.23
2023-04-18T14:36:29.417Z,22.42
2023-04-18T14:38:55.997Z,22.30
2023-04-18T14:41:23.889Z,22.13
2023-04-18T14:43:50.440Z,21.42
2023-04-18T14:46:17.092Z,20.05
2023-04-18T14:48:50.014Z,19.13
2023-04-18T14:51:16.869Z,16.63
2023-04-18T14:53:44.610Z,18.65
2023-04-18T14:56:11.397Z,21.10
2023-04-18T14:58:38.042Z,21.33
2023-04-18T15:01:05.751Z,22.35
2023-04-18T15:03:32.587Z,17.60
2023-04-18T15:05:59.280Z,19.38
2023-04-18T15:08:25.990Z,18.00
2023-04-18T15:10:52.581Z,17.67
2023-04-18T15:13:19.453Z,18.25
2023-04-18T15:15:53.984Z,19.95
2023-04-18T15:18:21.209Z,17.67
2023-04-18T15:20:48.244Z,17.73
2023-04-18T15:23:15.388Z,21.15
2023-04-18T15:25:44.312Z,21.30
2023-04-18T15:28:13.273Z,20.52
2023-04-18T15:30:40.180Z,42.08
2023-04-18T15:33:07.221Z,24.05
2023-04-18T15:35:34.344Z,23.75
2023-04-18T15:38:01.011Z,18.23
2023-04-18T15:40:27.627Z,22.13
2023-04-18T15:42:54.564Z,20.40
2023-04-18T15:45:21.802Z,23.48
2023-04-18T15:47:48.459Z,25.10
2023-04-18T15:50:18.224Z,21.35
2023-04-18T15:52:44.769Z,23.08
2023-04-18T15:55:22.195Z,23.88
2023-04-18T15:57:48.846Z,23.73
2023-04-18T16:00:16.058Z,26.55
2023-04-18T16:02:46.671Z,24.40
2023-04-18T16:05:14.068Z,23.75
2023-04-18T16:07:42.228Z,25.08
2023-04-18T16:10:10.558Z,28.10
2023-04-18T16:12:38.665Z,25.30
2023-04-18T16:15:06.985Z,23.40
2023-04-18T16:17:33.602Z,25.20
2023-04-18T16:20:00.309Z,22.48
2023-04-18T16:22:26.872Z,28.20
2023-04-18T16:24:53.404Z,25.70
2023-04-18T16:27:20.000Z,29.58
2023-04-18T16:29:47.229Z,28.27
2023-04-18T16:32:13.824Z,27.50
2023-04-18T16:34:40.351Z,25.70
2023-04-18T16:37:06.881Z,22.30
2023-04-18T16:39:33.541Z,26.67
2023-04-18T16:42:00.064Z,29.17
2023-04-18T16:44:26.629Z,28.27
2023-04-18T16:46:53.178Z,32.58
2023-04-18T16:49:20.498Z,33.63
2023-04-18T16:51:47.111Z,25.92
2023-04-18T16:54:13.971Z,24.15
2023-04-18T16:56:41.387Z,24.00
2023-04-18T16:59:09.388Z,32.40
2023-04-18T17:01:36.216Z,27.85
2023-04-18T17:04:02.992Z,26.05
2023-04-18T17:06:31.513Z,27.10
2023-04-18T17:08:58.907Z,30.30
2023-04-18T17:11:25.539Z,29.17
2023-04-18T17:13:52.233Z,25.05
2023-04-18T17:16:18.887Z,29.88
2023-04-18T17:18:45.449Z,28.08
2023-04-18T17:21:12.594Z,24.15
2023-04-18T17:23:41.570Z,24.33
2023-04-18T17:26:09.214Z,23.60
2023-04-18T17:28:36.480Z,22.58
2023-04-18T17:31:03.212Z,26.25
2023-04-18T17:33:30.388Z,25.05
2023-04-18T17:35:57.437Z,24.58
2023-04-18T17:38:24.138Z,22.73
2023-04-18T17:41:01.906Z,21.48
2023-04-18T17:43:31.008Z,21.58
2023-04-18T17:45:59.662Z,24.08
2023-04-18T17:48:28.433Z,26.42
2023-04-18T17:50:54.979Z,26.02
2023-04-18T17:53:22.345Z,23.45
2023-04-18T17:55:52.054Z,22.17
2023-04-18T17:58:19.821Z,25.95
2023-04-18T18:00:46.552Z,31.65
2023-04-18T18:03:14.565Z,22.83
2023-04-18T18:05:41.931Z,24.65
2023-04-18T18:08:11.183Z,28.75
2023-04-18T18:13:04.712Z,23.67
2023-04-18T18:15:31.968Z,25.17
2023-04-18T18:17:59.579Z,28.05
2023-04-18T18:20:27.366Z,25.58
2023-04-18T18:23:00.002Z,26.90
2023-04-18T18:25:27.458Z,23.52
2023-04-18T18:27:54.588Z,24.83
2023-04-18T18:30:21.143Z,23.25
2023-04-18T18:32:47.879Z,26.10
2023-04-18T18:35:14.448Z,26.95
2023-04-18T18:37:41.069Z,24.45
2023-04-18T18:40:08.482Z,24.27
2023-04-18T18:42:35.169Z,27.10
2023-04-18T18:45:02.726Z,24.17
2023-04-18T18:47:30.566Z,23.65
2023-04-18T18:49:57.273Z,35.40
2023-04-18T18:52:24.783Z,30.08
2023-04-18T18:54:51.427Z,22.83
2023-04-18T18:57:17.961Z,30.30
2023-04-18T18:59:44.499Z,24.55
2023-04-18T19:02:11.601Z,22.88
2023-04-18T19:04:38.377Z,27.55
2023-04-18T19:07:06.007Z,23.38
2023-04-18T19:09:32.699Z,27.52
2023-04-18T19:11:59.364Z,23.23
2023-04-18T19:14:25.967Z,24.92
2023-04-18T19:16:53.092Z,24.27
2023-04-18T19:19:19.602Z,27.10
2023-04-18T19:21:46.287Z,26.70
2023-04-18T19:24:13.315Z,24.67
2023-04-18T19:26:40.010Z,25.00
2023-04-18T19:29:07.839Z,23.48
2023-04-18T19:31:35.121Z,24.48
2023-04-18T19:34:02.356Z,25.50
2023-04-18T19:36:28.864Z,25.67
2023-04-18T19:38:55.380Z,26.73
2023-04-18T19:41:21.980Z,23.08
2023-04-18T19:43:48.567Z,22.50
2023-04-18T19:46:15.460Z,24.88
2023-04-18T19:48:42.080Z,23.35
2023-04-18T19:51:08.567Z,26.45
2023-04-18T19:53:35.070Z,24.02
2023-04-18T19:56:01.702Z,25.05
2023-04-18T19:58:45.009Z,24.85
2023-04-18T20:01:12.864Z,23.35
2023-04-18T20:03:40.989Z,23.50
2023-04-18T20:06:08.336Z,18.95
2023-04-18T20:08:39.436Z,20.13
2023-04-18T20:11:10.434Z,20.45
2023-04-18T20:13:37.502Z,19.00
2023-04-18T20:16:05.370Z,21.23
2023-04-18T20:18:32.502Z,22.00
2023-04-18T20:20:59.033Z,23.90
2023-04-18T20:23:25.551Z,19.83
2023-04-18T20:25:52.114Z,19.40
2023-04-18T20:28:18.660Z,19.55
2023-04-18T20:30:45.707Z,20.52
2023-04-18T20:33:12.518Z,22.85
2023-04-18T20:35:39.064Z,13.35
2023-04-18T20:38:06.534Z,21.35
2023-04-18T20:40:34.208Z,18.85
2023-04-18T20:43:02.941Z,17.95
2023-04-18T20:45:29.971Z,19.85
2023-04-18T20:47:56.906Z,19.85
2023-04-18T20:50:23.520Z,20.33
2023-04-18T20:52:50.090Z,21.05
2023-04-18T20:55:19.420Z,20.45
2023-04-18T21:00:14.049Z,21.92
2023-04-18T21:02:41.654Z,22.88
2023-04-18T21:05:08.846Z,25.10
2023-04-18T21:07:36.354Z,18.55
2023-04-18T21:10:04.003Z,21.83
2023-04-18T21:12:30.588Z,17.45
2023-04-18T21:14:57.098Z,24.90
2023-04-18T21:17:25.547Z,22.73
2023-04-18T21:19:52.621Z,26.25
2023-04-18T21:22:19.282Z,26.42
2023-04-18T21:24:46.795Z,26.95
2023-04-18T21:27:15.064Z,18.67
2023-04-18T21:29:41.814Z,21.38
2023-04-18T21:32:08.373Z,22.48
2023-04-18T21:34:34.854Z,21.88
2023-04-18T21:37:01.439Z,21.70
2023-04-18T21:39:28.023Z,19.45
2023-04-18T21:41:54.530Z,16.23
2023-04-18T21:44:21.122Z,22.05
2023-04-18T21:46:47.652Z,23.90
2023-04-18T21:49:14.370Z,22.35
2023-04-18T21:51:40.882Z,22.00
2023-04-18T21:54:07.908Z,21.02
2023-04-18T21:56:34.444Z,21.70
2023-04-18T21:59:01.018Z,17.20
2023-04-18T22:01:27.704Z,23.50
2023-04-18T22:03:54.356Z,23.52
2023-04-18T22:06:23.095Z,22.75
2023-04-18T22:08:50.041Z,23.17
2023-04-18T22:11:16.661Z,22.52
2023-04-18T22:13:45.110Z,27.33
2023-04-18T22:16:11.977Z,24.27
2023-04-18T22:18:38.550Z,22.20
2023-04-18T22:21:05.280Z,21.38
2023-04-18T22:23:31.935Z,22.60
2023-04-18T22:25:58.548Z,22.42
2023-04-18T22:28:27.756Z,38.10
2023-04-18T22:30:54.367Z,24.63
2023-04-18T22:33:20.942Z,30.17
2023-04-18T22:35:48.570Z,21.45
2023-04-18T22:38:15.361Z,18.20
2023-04-18T22:40:42.081Z,22.60
2023-04-18T22:43:08.585Z,20.75
2023-04-18T22:45:35.294Z,23.05
2023-04-18T22:48:01.895Z,19.45
2023-04-18T22:50:30.198Z,15.43
2023-04-18T22:52:57.506Z,20.98
2023-04-18T22:55:24.098Z,19.73
2023-04-18T22:57:50.647Z,23.17
2023-04-18T23:00:17.344Z,18.50
2023-04-18T23:02:44.089Z,18.10
2023-04-18T23:05:11.537Z,20.33
2023-04-18T23:07:38.062Z,20.38
2023-04-18T23:10:06.713Z,19.33
2023-04-18T23:12:33.368Z,18.95
2023-04-18T23:14:59.941Z,19.92
2023-04-18T23:17:26.508Z,20.23
2023-04-18T23:19:53.041Z,20.52
2023-04-18T23:22:20.393Z,20.27
2023-04-18T23:24:46.899Z,18.35
2023-04-18T23:27:13.393Z,15.73
2023-04-18T23:29:40.016Z,19.02
2023-04-18T23:32:08.232Z,19.30
2023-04-18T23:34:34.778Z,18.45
2023-04-18T23:37:01.320Z,23.13
2023-04-18T23:39:27.881Z,18.85
2023-04-18T23:41:54.457Z,16.08
2023-04-18T23:44:20.976Z,17.90
2023-04-18T23:46:48.063Z,17.63
2023-04-18T23:49:15.405Z,18.10
2023-04-18T23:51:42.498Z,18.88
2023-04-18T23:54:09.036Z,15.02
2023-04-18T23:56:35.744Z,13.90
2023-04-18T23:59:02.468Z,12.57
